sensor_id;sensor_type;location;lat;lon;timestamp;temperature;humidity
54178;DHT22;40085;53.004;6.770;2023-05-23T00:01:21;13.70;99.90
54178;DHT22;40085;53.004;6.770;2023-05-23T00:03:47;14.10;99.90
54178;DHT22;40085;53.004;6.770;2023-05-23T00:06:13;13.70;99.90
54178;DHT22;40085;53.004;6.770;2023-05-23T00:08:39;13.70;99.90
54178;DHT22;40085;53.004;6.770;2023-05-23T00:11:05;14.20;99.90
54178;DHT22;40085;53.004;6.770;2023-05-23T00:13:30;13.70;99.90
54178;DHT22;40085;53.004;6.770;2023-05-23T00:15:59;13.70;99.90
54178;DHT22;40085;53.004;6.770;2023-05-23T00:18:25;13.70;99.90
54178;DHT22;40085;53.004;6.770;2023-05-23T00:20:50;13.70;99.90
54178;DHT22;40085;53.004;6.770;2023-05-23T00:23:16;13.70;99.90
54178;DHT22;40085;53.004;6.770;2023-05-23T00:25:46;13.90;99.90
54178;DHT22;40085;53.004;6.770;2023-05-23T00:28:18;13.70;99.90
54178;DHT22;40085;53.004;6.770;2023-05-23T00:30:44;13.80;99.90
54178;DHT22;40085;53.004;6.770;2023-05-23T00:33:09;13.80;99.90
54178;DHT22;40085;53.004;6.770;2023-05-23T00:35:38;13.80;99.90
54178;DHT22;40085;53.004;6.770;2023-05-23T00:38:03;13.80;99.90
54178;DHT22;40085;53.004;6.770;2023-05-23T00:40:32;13.80;99.90
54178;DHT22;40085;53.004;6.770;2023-05-23T00:42:58;13.90;99.90
54178;DHT22;40085;53.004;6.770;2023-05-23T00:45:24;13.80;99.90
54178;DHT22;40085;53.004;6.770;2023-05-23T00:47:50;13.80;99.90
54178;DHT22;40085;53.004;6.770;2023-05-23T00:50:17;13.90;99.90
54178;DHT22;40085;53.004;6.770;2023-05-23T00:52:45;13.80;99.90
54178;DHT22;40085;53.004;6.770;2023-05-23T00:55:12;13.80;99.90
54178;DHT22;40085;53.004;6.770;2023-05-23T00:57:39;13.80;99.90
54178;DHT22;40085;53.004;6.770;2023-05-23T01:00:09;13.80;99.90
54178;DHT22;40085;53.004;6.770;2023-05-23T01:02:39;13.80;99.90
54178;DHT22;40085;53.004;6.770;2023-05-23T01:05:09;13.80;99.90
54178;DHT22;40085;53.004;6.770;2023-05-23T01:07:35;13.80;99.90
54178;DHT22;40085;53.004;6.770;2023-05-23T01:10:02;13.80;99.90
54178;DHT22;40085;53.004;6.770;2023-05-23T01:18:01;13.90;99.90
54178;DHT22;40085;53.004;6.770;2023-05-23T01:23:20;13.80;99.90
54178;DHT22;40085;53.004;6.770;2023-05-23T01:28:50;13.80;99.90
54178;DHT22;40085;53.004;6.770;2023-05-23T01:31:17;13.80;99.90
54178;DHT22;40085;53.004;6.770;2023-05-23T01:33:45;13.80;99.90
54178;DHT22;40085;53.004;6.770;2023-05-23T01:36:14;13.80;99.90
54178;DHT22;40085;53.004;6.770;2023-05-23T01:38:40;14.50;99.90
54178;DHT22;40085;53.004;6.770;2023-05-23T01:41:06;13.70;99.90
54178;DHT22;40085;53.004;6.770;2023-05-23T01:43:32;13.70;99.90
54178;DHT22;40085;53.004;6.770;2023-05-23T01:45:58;13.70;99.90
54178;DHT22;40085;53.004;6.770;2023-05-23T01:48:25;13.60;99.90
54178;DHT22;40085;53.004;6.770;2023-05-23T01:50:52;13.60;99.90
54178;DHT22;40085;53.004;6.770;2023-05-23T01:53:22;13.60;99.90
54178;DHT22;40085;53.004;6.770;2023-05-23T01:55:48;13.50;99.90
54178;DHT22;40085;53.004;6.770;2023-05-23T01:58:15;13.60;99.90
54178;DHT22;40085;53.004;6.770;2023-05-23T02:00:41;13.50;99.90
54178;DHT22;40085;53.004;6.770;2023-05-23T02:03:06;13.50;99.90
54178;DHT22;40085;53.004;6.770;2023-05-23T02:05:32;13.40;99.90
54178;DHT22;40085;53.004;6.770;2023-05-23T02:07:58;13.50;99.90
54178;DHT22;40085;53.004;6.770;2023-05-23T02:10:23;13.50;99.90
54178;DHT22;40085;53.004;6.770;2023-05-23T02:12:49;13.50;99.90
54178;DHT22;40085;53.004;6.770;2023-05-23T02:15:15;13.40;99.90
54178;DHT22;40085;53.004;6.770;2023-05-23T02:17:41;13.40;99.90
54178;DHT22;40085;53.004;6.770;2023-05-23T02:20:08;13.30;99.90
54178;DHT22;40085;53.004;6.770;2023-05-23T02:22:34;13.30;99.90
54178;DHT22;40085;53.004;6.770;2023-05-23T02:25:00;13.30;99.90
54178;DHT22;40085;53.004;6.770;2023-05-23T02:27:26;13.20;99.90
54178;DHT22;40085;53.004;6.770;2023-05-23T02:29:52;13.20;99.90
54178;DHT22;40085;53.004;6.770;2023-05-23T02:32:17;13.20;99.90
54178;DHT22;40085;53.004;6.770;2023-05-23T02:34:43;13.20;99.90
54178;DHT22;40085;53.004;6.770;2023-05-23T02:37:13;13.10;99.90
54178;DHT22;40085;53.004;6.770;2023-05-23T02:39:39;13.10;99.90
54178;DHT22;40085;53.004;6.770;2023-05-23T02:42:05;13.00;99.90
54178;DHT22;40085;53.004;6.770;2023-05-23T02:44:30;13.00;99.90
54178;DHT22;40085;53.004;6.770;2023-05-23T02:46:56;13.00;99.90
54178;DHT22;40085;53.004;6.770;2023-05-23T02:49:21;13.30;99.90
54178;DHT22;40085;53.004;6.770;2023-05-23T02:51:47;12.90;99.90
54178;DHT22;40085;53.004;6.770;2023-05-23T02:54:13;12.90;99.90
54178;DHT22;40085;53.004;6.770;2023-05-23T02:56:38;12.90;99.90
54178;DHT22;40085;53.004;6.770;2023-05-23T02:59:04;12.90;99.90
54178;DHT22;40085;53.004;6.770;2023-05-23T03:01:30;12.80;99.90
54178;DHT22;40085;53.004;6.770;2023-05-23T03:03:55;12.80;99.90
54178;DHT22;40085;53.004;6.770;2023-05-23T03:06:21;13.40;99.90
54178;DHT22;40085;53.004;6.770;2023-05-23T03:08:47;12.80;99.90
54178;DHT22;40085;53.004;6.770;2023-05-23T03:11:12;13.40;99.90
54178;DHT22;40085;53.004;6.770;2023-05-23T03:13:38;12.70;99.90
54178;DHT22;40085;53.004;6.770;2023-05-23T03:16:04;12.70;99.90
54178;DHT22;40085;53.004;6.770;2023-05-23T03:18:29;12.60;99.90
54178;DHT22;40085;53.004;6.770;2023-05-23T03:20:55;12.60;99.90
54178;DHT22;40085;53.004;6.770;2023-05-23T03:23:20;12.50;99.90
54178;DHT22;40085;53.004;6.770;2023-05-23T03:25:46;12.50;99.90
54178;DHT22;40085;53.004;6.770;2023-05-23T03:28:12;13.20;99.90
54178;DHT22;40085;53.004;6.770;2023-05-23T03:30:37;12.50;99.90
54178;DHT22;40085;53.004;6.770;2023-05-23T03:33:03;12.40;99.90
54178;DHT22;40085;53.004;6.770;2023-05-23T03:35:29;12.30;99.90
54178;DHT22;40085;53.004;6.770;2023-05-23T03:37:54;13.10;99.90
54178;DHT22;40085;53.004;6.770;2023-05-23T03:40:20;12.30;99.90
54178;DHT22;40085;53.004;6.770;2023-05-23T03:42:47;12.30;99.90
54178;DHT22;40085;53.004;6.770;2023-05-23T03:45:13;12.30;99.90
54178;DHT22;40085;53.004;6.770;2023-05-23T03:47:38;12.20;99.90
54178;DHT22;40085;53.004;6.770;2023-05-23T03:50:05;12.20;99.90
54178;DHT22;40085;53.004;6.770;2023-05-23T03:52:30;12.20;99.90
54178;DHT22;40085;53.004;6.770;2023-05-23T03:54:56;12.40;99.90
54178;DHT22;40085;53.004;6.770;2023-05-23T03:57:21;12.20;99.90
54178;DHT22;40085;53.004;6.770;2023-05-23T03:59:47;12.20;99.90
54178;DHT22;40085;53.004;6.770;2023-05-23T04:02:13;12.30;99.90
54178;DHT22;40085;53.004;6.770;2023-05-23T04:04:38;12.50;99.90
54178;DHT22;40085;53.004;6.770;2023-05-23T04:07:04;12.70;99.90
54178;DHT22;40085;53.004;6.770;2023-05-23T04:09:30;12.60;99.90
54178;DHT22;40085;53.004;6.770;2023-05-23T04:11:57;12.30;99.90
54178;DHT22;40085;53.004;6.770;2023-05-23T04:14:22;12.30;99.90
54178;DHT22;40085;53.004;6.770;2023-05-23T04:16:51;12.20;99.90
54178;DHT22;40085;53.004;6.770;2023-05-23T04:19:17;12.20;99.90
54178;DHT22;40085;53.004;6.770;2023-05-23T04:21:43;12.20;99.90
54178;DHT22;40085;53.004;6.770;2023-05-23T04:24:08;12.20;99.90
54178;DHT22;40085;53.004;6.770;2023-05-23T04:26:34;12.20;99.90
54178;DHT22;40085;53.004;6.770;2023-05-23T04:29:01;12.20;99.90
54178;DHT22;40085;53.004;6.770;2023-05-23T04:31:27;12.20;99.90
54178;DHT22;40085;53.004;6.770;2023-05-23T04:33:53;12.20;99.90
54178;DHT22;40085;53.004;6.770;2023-05-23T04:36:19;12.10;99.90
54178;DHT22;40085;53.004;6.770;2023-05-23T04:38:44;12.30;99.90
54178;DHT22;40085;53.004;6.770;2023-05-23T04:41:10;12.30;99.90
54178;DHT22;40085;53.004;6.770;2023-05-23T04:43:35;12.10;99.90
54178;DHT22;40085;53.004;6.770;2023-05-23T04:46:10;12.20;99.90
54178;DHT22;40085;53.004;6.770;2023-05-23T04:48:36;12.10;99.90
54178;DHT22;40085;53.004;6.770;2023-05-23T04:51:02;12.10;99.90
54178;DHT22;40085;53.004;6.770;2023-05-23T04:53:33;12.10;99.90
54178;DHT22;40085;53.004;6.770;2023-05-23T04:55:59;12.10;99.90
54178;DHT22;40085;53.004;6.770;2023-05-23T04:58:25;12.10;99.90
54178;DHT22;40085;53.004;6.770;2023-05-23T05:00:50;12.70;99.90
54178;DHT22;40085;53.004;6.770;2023-05-23T05:03:16;12.10;99.90
54178;DHT22;40085;53.004;6.770;2023-05-23T05:05:42;12.10;99.90
54178;DHT22;40085;53.004;6.770;2023-05-23T05:08:07;12.10;99.90
54178;DHT22;40085;53.004;6.770;2023-05-23T05:10:33;12.10;99.90
54178;DHT22;40085;53.004;6.770;2023-05-23T05:12:58;11.70;99.90
54178;DHT22;40085;53.004;6.770;2023-05-23T05:15:24;12.10;99.90
54178;DHT22;40085;53.004;6.770;2023-05-23T05:17:50;12.00;99.90
54178;DHT22;40085;53.004;6.770;2023-05-23T05:20:16;12.00;99.90
54178;DHT22;40085;53.004;6.770;2023-05-23T05:22:41;12.00;99.90
54178;DHT22;40085;53.004;6.770;2023-05-23T05:25:09;12.00;99.90
54178;DHT22;40085;53.004;6.770;2023-05-23T05:27:34;11.90;99.90
54178;DHT22;40085;53.004;6.770;2023-05-23T05:30:07;11.90;99.90
54178;DHT22;40085;53.004;6.770;2023-05-23T05:32:33;11.90;99.90
54178;DHT22;40085;53.004;6.770;2023-05-23T05:35:00;11.90;99.90
54178;DHT22;40085;53.004;6.770;2023-05-23T05:37:25;12.10;99.90
54178;DHT22;40085;53.004;6.770;2023-05-23T05:39:51;11.90;99.90
54178;DHT22;40085;53.004;6.770;2023-05-23T05:42:21;11.90;99.90
54178;DHT22;40085;53.004;6.770;2023-05-23T05:44:48;11.90;99.90
54178;DHT22;40085;53.004;6.770;2023-05-23T05:47:14;11.80;99.90
54178;DHT22;40085;53.004;6.770;2023-05-23T05:49:40;11.80;99.90
54178;DHT22;40085;53.004;6.770;2023-05-23T05:52:06;11.70;99.90
54178;DHT22;40085;53.004;6.770;2023-05-23T05:54:32;11.70;99.90
54178;DHT22;40085;53.004;6.770;2023-05-23T05:56:58;11.60;99.90
54178;DHT22;40085;53.004;6.770;2023-05-23T05:59:23;11.60;99.90
54178;DHT22;40085;53.004;6.770;2023-05-23T06:01:49;11.60;99.90
54178;DHT22;40085;53.004;6.770;2023-05-23T06:04:16;11.60;99.90
54178;DHT22;40085;53.004;6.770;2023-05-23T06:06:42;12.00;99.90
54178;DHT22;40085;53.004;6.770;2023-05-23T06:09:08;11.60;99.90
54178;DHT22;40085;53.004;6.770;2023-05-23T06:11:35;11.60;99.90
54178;DHT22;40085;53.004;6.770;2023-05-23T06:14:03;11.50;99.90
54178;DHT22;40085;53.004;6.770;2023-05-23T06:16:29;11.50;99.90
54178;DHT22;40085;53.004;6.770;2023-05-23T06:18:54;11.50;99.90
54178;DHT22;40085;53.004;6.770;2023-05-23T06:21:20;11.50;99.90
54178;DHT22;40085;53.004;6.770;2023-05-23T06:23:46;11.50;99.90
54178;DHT22;40085;53.004;6.770;2023-05-23T06:26:11;11.50;99.90
54178;DHT22;40085;53.004;6.770;2023-05-23T06:28:37;11.50;99.90
54178;DHT22;40085;53.004;6.770;2023-05-23T06:31:06;11.50;99.90
54178;DHT22;40085;53.004;6.770;2023-05-23T06:33:34;11.40;99.90
54178;DHT22;40085;53.004;6.770;2023-05-23T06:35:59;11.50;99.90
54178;DHT22;40085;53.004;6.770;2023-05-23T06:38:28;11.40;99.90
54178;DHT22;40085;53.004;6.770;2023-05-23T06:40:54;12.40;99.90
54178;DHT22;40085;53.004;6.770;2023-05-23T06:43:19;11.50;99.90
54178;DHT22;40085;53.004;6.770;2023-05-23T06:45:45;11.50;99.90
54178;DHT22;40085;53.004;6.770;2023-05-23T06:48:14;11.20;96.90
54178;DHT22;40085;53.004;6.770;2023-05-23T06:50:40;11.30;96.20
54178;DHT22;40085;53.004;6.770;2023-05-23T06:53:05;11.50;95.90
54178;DHT22;40085;53.004;6.770;2023-05-23T06:55:31;12.50;93.70
54178;DHT22;40085;53.004;6.770;2023-05-23T06:57:59;12.10;93.30
54178;DHT22;40085;53.004;6.770;2023-05-23T07:00:25;11.50;93.30
54178;DHT22;40085;53.004;6.770;2023-05-23T07:02:50;11.50;92.90
54178;DHT22;40085;53.004;6.770;2023-05-23T07:05:16;11.60;93.60
54178;DHT22;40085;53.004;6.770;2023-05-23T07:07:42;11.60;90.10
54178;DHT22;40085;53.004;6.770;2023-05-23T07:10:08;11.60;82.50
54178;DHT22;40085;53.004;6.770;2023-05-23T07:12:34;11.60;73.90
54178;DHT22;40085;53.004;6.770;2023-05-23T07:15:00;11.70;65.50
54178;DHT22;40085;53.004;6.770;2023-05-23T07:17:26;11.70;52.70
54178;DHT22;40085;53.004;6.770;2023-05-23T07:19:54;11.70;47.80
54178;DHT22;40085;53.004;6.770;2023-05-23T07:22:20;11.90;38.60
54178;DHT22;40085;53.004;6.770;2023-05-23T07:24:46;12.00;28.50
54178;DHT22;40085;53.004;6.770;2023-05-23T07:27:11;12.10;1.00
54178;DHT22;40085;53.004;6.770;2023-05-23T07:29:37;12.00;99.90
54178;DHT22;40085;53.004;6.770;2023-05-23T07:32:02;12.00;99.90
54178;DHT22;40085;53.004;6.770;2023-05-23T07:34:28;12.00;99.90
54178;DHT22;40085;53.004;6.770;2023-05-23T07:36:54;12.00;99.90
54178;DHT22;40085;53.004;6.770;2023-05-23T07:39:20;11.90;99.90
54178;DHT22;40085;53.004;6.770;2023-05-23T07:41:50;12.00;99.90
54178;DHT22;40085;53.004;6.770;2023-05-23T07:44:17;12.00;99.90
54178;DHT22;40085;53.004;6.770;2023-05-23T07:46:43;12.60;99.90
54178;DHT22;40085;53.004;6.770;2023-05-23T07:49:08;12.00;99.90
54178;DHT22;40085;53.004;6.770;2023-05-23T07:51:34;12.10;99.90
54178;DHT22;40085;53.004;6.770;2023-05-23T07:54:00;12.10;99.90
54178;DHT22;40085;53.004;6.770;2023-05-23T07:56:26;12.20;99.90
54178;DHT22;40085;53.004;6.770;2023-05-23T07:58:51;12.20;99.90
54178;DHT22;40085;53.004;6.770;2023-05-23T08:01:17;12.30;38.10
54178;DHT22;40085;53.004;6.770;2023-05-23T08:03:43;12.50;99.90
54178;DHT22;40085;53.004;6.770;2023-05-23T08:06:09;12.30;99.90
54178;DHT22;40085;53.004;6.770;2023-05-23T08:08:34;12.30;4.20
54178;DHT22;40085;53.004;6.770;2023-05-23T08:11:00;12.10;3.50
54178;DHT22;40085;53.004;6.770;2023-05-23T08:13:26;12.40;99.90
54178;DHT22;40085;53.004;6.770;2023-05-23T08:15:52;12.40;99.90
54178;DHT22;40085;53.004;6.770;2023-05-23T08:18:18;12.00;99.90
54178;DHT22;40085;53.004;6.770;2023-05-23T08:20:44;12.40;99.90
54178;DHT22;40085;53.004;6.770;2023-05-23T08:23:09;12.60;99.90
54178;DHT22;40085;53.004;6.770;2023-05-23T08:25:37;12.90;99.90
54178;DHT22;40085;53.004;6.770;2023-05-23T08:28:03;13.70;99.90
54178;DHT22;40085;53.004;6.770;2023-05-23T08:30:29;13.00;1.00
54178;DHT22;40085;53.004;6.770;2023-05-23T08:32:55;13.20;10.80
54178;DHT22;40085;53.004;6.770;2023-05-23T08:35:21;13.20;99.90
54178;DHT22;40085;53.004;6.770;2023-05-23T08:37:47;13.00;99.90
54178;DHT22;40085;53.004;6.770;2023-05-23T08:40:23;13.00;99.90
54178;DHT22;40085;53.004;6.770;2023-05-23T08:42:51;13.10;1.00
54178;DHT22;40085;53.004;6.770;2023-05-23T08:45:17;13.20;99.90
54178;DHT22;40085;53.004;6.770;2023-05-23T08:47:44;13.30;1.00
54178;DHT22;40085;53.004;6.770;2023-05-23T08:50:17;13.50;99.90
54178;DHT22;40085;53.004;6.770;2023-05-23T08:52:49;13.50;99.90
54178;DHT22;40085;53.004;6.770;2023-05-23T08:55:18;13.60;99.90
54178;DHT22;40085;53.004;6.770;2023-05-23T08:57:45;13.80;99.90
54178;DHT22;40085;53.004;6.770;2023-05-23T09:00:14;14.30;99.90
54178;DHT22;40085;53.004;6.770;2023-05-23T09:02:44;14.00;99.90
54178;DHT22;40085;53.004;6.770;2023-05-23T09:05:10;14.10;99.90
54178;DHT22;40085;53.004;6.770;2023-05-23T09:07:36;13.80;99.90
54178;DHT22;40085;53.004;6.770;2023-05-23T09:10:05;13.80;99.90
54178;DHT22;40085;53.004;6.770;2023-05-23T09:12:33;13.90;99.90
54178;DHT22;40085;53.004;6.770;2023-05-23T09:14:58;14.00;99.90
54178;DHT22;40085;53.004;6.770;2023-05-23T09:17:24;14.10;99.90
54178;DHT22;40085;53.004;6.770;2023-05-23T09:19:50;14.40;99.90
54178;DHT22;40085;53.004;6.770;2023-05-23T09:22:16;14.50;99.90
54178;DHT22;40085;53.004;6.770;2023-05-23T09:24:49;14.10;99.90
54178;DHT22;40085;53.004;6.770;2023-05-23T09:27:15;15.40;99.90
54178;DHT22;40085;53.004;6.770;2023-05-23T09:29:41;14.40;99.90
54178;DHT22;40085;53.004;6.770;2023-05-23T09:32:10;14.30;99.90
54178;DHT22;40085;53.004;6.770;2023-05-23T09:34:40;14.30;99.90
54178;DHT22;40085;53.004;6.770;2023-05-23T09:37:06;14.20;99.90
54178;DHT22;40085;53.004;6.770;2023-05-23T09:39:36;14.90;99.90
54178;DHT22;40085;53.004;6.770;2023-05-23T09:42:02;14.40;99.90
54178;DHT22;40085;53.004;6.770;2023-05-23T09:44:27;14.50;99.90
54178;DHT22;40085;53.004;6.770;2023-05-23T09:46:53;14.50;99.90
54178;DHT22;40085;53.004;6.770;2023-05-23T09:49:19;14.50;99.90
54178;DHT22;40085;53.004;6.770;2023-05-23T09:51:59;14.30;99.90
54178;DHT22;40085;53.004;6.770;2023-05-23T09:54:25;14.20;99.90
54178;DHT22;40085;53.004;6.770;2023-05-23T09:56:52;14.30;99.90
54178;DHT22;40085;53.004;6.770;2023-05-23T09:59:20;14.30;99.90
54178;DHT22;40085;53.004;6.770;2023-05-23T10:01:50;14.40;99.90
54178;DHT22;40085;53.004;6.770;2023-05-23T10:04:20;14.30;99.90
54178;DHT22;40085;53.004;6.770;2023-05-23T10:06:55;14.30;99.90
54178;DHT22;40085;53.004;6.770;2023-05-23T10:09:25;15.00;99.90
54178;DHT22;40085;53.004;6.770;2023-05-23T10:15:03;14.10;99.90
54178;DHT22;40085;53.004;6.770;2023-05-23T10:17:48;14.10;99.90
54178;DHT22;40085;53.004;6.770;2023-05-23T10:20:17;14.10;99.90
54178;DHT22;40085;53.004;6.770;2023-05-23T10:22:47;14.10;99.90
54178;DHT22;40085;53.004;6.770;2023-05-23T10:25:15;14.10;99.90
54178;DHT22;40085;53.004;6.770;2023-05-23T10:27:42;14.70;99.90
54178;DHT22;40085;53.004;6.770;2023-05-23T10:30:08;14.40;99.90
54178;DHT22;40085;53.004;6.770;2023-05-23T10:32:36;14.50;99.90
54178;DHT22;40085;53.004;6.770;2023-05-23T10:35:23;14.40;99.90
54178;DHT22;40085;53.004;6.770;2023-05-23T10:40:52;14.30;99.90
54178;DHT22;40085;53.004;6.770;2023-05-23T10:45:56;14.80;99.90
54178;DHT22;40085;53.004;6.770;2023-05-23T10:48:31;14.40;99.90
54178;DHT22;40085;53.004;6.770;2023-05-23T10:51:05;14.40;99.90
54178;DHT22;40085;53.004;6.770;2023-05-23T10:53:37;14.30;99.90
54178;DHT22;40085;53.004;6.770;2023-05-23T10:56:05;14.40;99.90
54178;DHT22;40085;53.004;6.770;2023-05-23T10:58:32;14.40;99.90
54178;DHT22;40085;53.004;6.770;2023-05-23T11:01:00;14.50;99.90
54178;DHT22;40085;53.004;6.770;2023-05-23T11:03:35;14.30;99.90
54178;DHT22;40085;53.004;6.770;2023-05-23T11:06:04;14.40;99.90
54178;DHT22;40085;53.004;6.770;2023-05-23T11:08:40;14.40;99.90
54178;DHT22;40085;53.004;6.770;2023-05-23T11:11:07;14.60;99.90
54178;DHT22;40085;53.004;6.770;2023-05-23T11:16:43;14.70;99.90
54178;DHT22;40085;53.004;6.770;2023-05-23T11:21:55;14.60;99.90
54178;DHT22;40085;53.004;6.770;2023-05-23T11:24:21;14.60;99.90
54178;DHT22;40085;53.004;6.770;2023-05-23T11:26:56;14.60;99.90
54178;DHT22;40085;53.004;6.770;2023-05-23T11:29:27;14.90;99.90
54178;DHT22;40085;53.004;6.770;2023-05-23T11:31:56;14.80;99.90
54178;DHT22;40085;53.004;6.770;2023-05-23T11:34:24;14.80;99.90
54178;DHT22;40085;53.004;6.770;2023-05-23T11:36:54;14.80;99.70
54178;DHT22;40085;53.004;6.770;2023-05-23T11:39:20;14.80;99.90
54178;DHT22;40085;53.004;6.770;2023-05-23T11:42:02;14.80;99.90
54178;DHT22;40085;53.004;6.770;2023-05-23T11:44:29;14.80;97.70
54178;DHT22;40085;53.004;6.770;2023-05-23T11:47:02;14.90;99.90
54178;DHT22;40085;53.004;6.770;2023-05-23T11:49:30;14.90;95.30
54178;DHT22;40085;53.004;6.770;2023-05-23T11:51:57;14.90;97.20
54178;DHT22;40085;53.004;6.770;2023-05-23T11:54:24;14.90;97.40
54178;DHT22;40085;53.004;6.770;2023-05-23T11:56:51;14.70;98.30
54178;DHT22;40085;53.004;6.770;2023-05-23T11:59:17;14.60;96.50
54178;DHT22;40085;53.004;6.770;2023-05-23T12:01:43;14.80;98.10
54178;DHT22;40085;53.004;6.770;2023-05-23T12:04:09;14.70;96.30
54178;DHT22;40085;53.004;6.770;2023-05-23T12:06:39;15.50;91.70
54178;DHT22;40085;53.004;6.770;2023-05-23T12:09:06;15.20;91.00
54178;DHT22;40085;53.004;6.770;2023-05-23T12:11:32;14.50;91.10
54178;DHT22;40085;53.004;6.770;2023-05-23T12:13:59;14.40;91.60
54178;DHT22;40085;53.004;6.770;2023-05-23T12:16:30;14.50;93.10
54178;DHT22;40085;53.004;6.770;2023-05-23T12:18:57;14.90;96.00
54178;DHT22;40085;53.004;6.770;2023-05-23T12:21:25;14.90;92.90
54178;DHT22;40085;53.004;6.770;2023-05-23T12:23:51;14.90;91.20
54178;DHT22;40085;53.004;6.770;2023-05-23T12:26:16;15.10;96.60
54178;DHT22;40085;53.004;6.770;2023-05-23T12:28:43;15.20;92.80
54178;DHT22;40085;53.004;6.770;2023-05-23T12:31:16;15.10;90.90
54178;DHT22;40085;53.004;6.770;2023-05-23T12:33:43;14.90;89.50
54178;DHT22;40085;53.004;6.770;2023-05-23T12:36:10;14.90;91.20
54178;DHT22;40085;53.004;6.770;2023-05-23T12:38:36;14.90;90.90
54178;DHT22;40085;53.004;6.770;2023-05-23T12:41:15;15.50;84.40
54178;DHT22;40085;53.004;6.770;2023-05-23T12:43:49;15.00;86.50
54178;DHT22;40085;53.004;6.770;2023-05-23T12:46:15;14.90;82.60
54178;DHT22;40085;53.004;6.770;2023-05-23T12:48:41;15.00;81.30
54178;DHT22;40085;53.004;6.770;2023-05-23T12:51:07;15.10;82.80
54178;DHT22;40085;53.004;6.770;2023-05-23T12:53:32;15.20;86.90
54178;DHT22;40085;53.004;6.770;2023-05-23T12:55:58;14.80;84.60
54178;DHT22;40085;53.004;6.770;2023-05-23T12:58:23;15.10;80.00
54178;DHT22;40085;53.004;6.770;2023-05-23T13:00:49;15.00;81.40
54178;DHT22;40085;53.004;6.770;2023-05-23T13:03:15;15.60;79.00
54178;DHT22;40085;53.004;6.770;2023-05-23T13:05:41;15.00;80.40
54178;DHT22;40085;53.004;6.770;2023-05-23T13:08:07;15.00;80.80
54178;DHT22;40085;53.004;6.770;2023-05-23T13:10:32;15.10;80.40
54178;DHT22;40085;53.004;6.770;2023-05-23T13:12:58;15.90;81.30
54178;DHT22;40085;53.004;6.770;2023-05-23T13:15:24;15.10;81.60
54178;DHT22;40085;53.004;6.770;2023-05-23T13:17:49;15.00;78.40
54178;DHT22;40085;53.004;6.770;2023-05-23T13:20:15;14.90;74.00
54178;DHT22;40085;53.004;6.770;2023-05-23T13:22:41;14.80;80.90
54178;DHT22;40085;53.004;6.770;2023-05-23T13:25:07;14.80;75.60
54178;DHT22;40085;53.004;6.770;2023-05-23T13:27:33;14.90;73.40
54178;DHT22;40085;53.004;6.770;2023-05-23T13:29:59;15.10;79.30
54178;DHT22;40085;53.004;6.770;2023-05-23T13:32:25;15.30;69.20
54178;DHT22;40085;53.004;6.770;2023-05-23T13:34:51;16.00;69.40
54178;DHT22;40085;53.004;6.770;2023-05-23T13:37:17;15.40;68.70
54178;DHT22;40085;53.004;6.770;2023-05-23T13:39:42;14.90;63.20
54178;DHT22;40085;53.004;6.770;2023-05-23T13:42:08;15.30;67.40
54178;DHT22;40085;53.004;6.770;2023-05-23T13:44:35;15.10;63.90
54178;DHT22;40085;53.004;6.770;2023-05-23T13:47:12;15.30;67.90
54178;DHT22;40085;53.004;6.770;2023-05-23T13:49:37;15.50;62.80
54178;DHT22;40085;53.004;6.770;2023-05-23T13:52:03;15.30;66.30
54178;DHT22;40085;53.004;6.770;2023-05-23T13:54:29;15.10;60.70
54178;DHT22;40085;53.004;6.770;2023-05-23T13:56:54;14.80;57.10
54178;DHT22;40085;53.004;6.770;2023-05-23T13:59:20;15.20;52.20
54178;DHT22;40085;53.004;6.770;2023-05-23T14:01:46;15.20;57.00
54178;DHT22;40085;53.004;6.770;2023-05-23T14:04:12;15.50;53.60
54178;DHT22;40085;53.004;6.770;2023-05-23T14:06:38;15.30;40.50
54178;DHT22;40085;53.004;6.770;2023-05-23T14:09:04;15.90;45.00
54178;DHT22;40085;53.004;6.770;2023-05-23T14:11:31;15.40;44.20
54178;DHT22;40085;53.004;6.770;2023-05-23T14:13:57;15.10;42.30
54178;DHT22;40085;53.004;6.770;2023-05-23T14:16:22;15.20;38.80
54178;DHT22;40085;53.004;6.770;2023-05-23T14:18:48;15.10;40.60
54178;DHT22;40085;53.004;6.770;2023-05-23T14:21:14;15.20;38.20
54178;DHT22;40085;53.004;6.770;2023-05-23T14:23:40;15.90;40.40
54178;DHT22;40085;53.004;6.770;2023-05-23T14:26:05;15.30;35.90
54178;DHT22;40085;53.004;6.770;2023-05-23T14:28:31;15.30;42.10
54178;DHT22;40085;53.004;6.770;2023-05-23T14:30:57;15.20;43.90
54178;DHT22;40085;53.004;6.770;2023-05-23T14:33:24;14.50;39.50
54178;DHT22;40085;53.004;6.770;2023-05-23T14:35:50;14.90;40.70
54178;DHT22;40085;53.004;6.770;2023-05-23T14:38:16;14.90;40.80
54178;DHT22;40085;53.004;6.770;2023-05-23T14:40:42;14.80;40.50
54178;DHT22;40085;53.004;6.770;2023-05-23T14:43:08;15.00;43.40
54178;DHT22;40085;53.004;6.770;2023-05-23T14:45:34;15.30;39.70
54178;DHT22;40085;53.004;6.770;2023-05-23T14:48:00;15.50;36.60
54178;DHT22;40085;53.004;6.770;2023-05-23T14:50:26;15.10;32.40
54178;DHT22;40085;53.004;6.770;2023-05-23T14:52:52;14.70;31.90
54178;DHT22;40085;53.004;6.770;2023-05-23T14:55:18;14.90;32.50
54178;DHT22;40085;53.004;6.770;2023-05-23T14:57:44;14.90;99.90
54178;DHT22;40085;53.004;6.770;2023-05-23T15:00:10;14.80;99.90
54178;DHT22;40085;53.004;6.770;2023-05-23T15:02:36;14.70;29.10
54178;DHT22;40085;53.004;6.770;2023-05-23T15:05:03;14.80;27.40
54178;DHT22;40085;53.004;6.770;2023-05-23T15:07:29;15.00;29.60
54178;DHT22;40085;53.004;6.770;2023-05-23T15:09:55;15.30;33.70
54178;DHT22;40085;53.004;6.770;2023-05-23T15:12:20;15.30;33.20
54178;DHT22;40085;53.004;6.770;2023-05-23T15:14:46;15.40;31.20
54178;DHT22;40085;53.004;6.770;2023-05-23T15:17:12;15.40;30.80
54178;DHT22;40085;53.004;6.770;2023-05-23T15:19:44;15.80;30.90
54178;DHT22;40085;53.004;6.770;2023-05-23T15:22:10;15.50;32.20
54178;DHT22;40085;53.004;6.770;2023-05-23T15:24:36;14.90;30.20
54178;DHT22;40085;53.004;6.770;2023-05-23T15:27:02;15.20;28.60
54178;DHT22;40085;53.004;6.770;2023-05-23T15:29:28;15.10;28.20
54178;DHT22;40085;53.004;6.770;2023-05-23T15:31:53;15.20;29.60
54178;DHT22;40085;53.004;6.770;2023-05-23T15:34:19;15.60;30.70
54178;DHT22;40085;53.004;6.770;2023-05-23T15:36:45;15.60;30.50
54178;DHT22;40085;53.004;6.770;2023-05-23T15:39:11;15.20;29.70
54178;DHT22;40085;53.004;6.770;2023-05-23T15:41:37;15.10;40.40
54178;DHT22;40085;53.004;6.770;2023-05-23T15:44:03;15.30;27.30
54178;DHT22;40085;53.004;6.770;2023-05-23T15:46:30;15.00;24.20
54178;DHT22;40085;53.004;6.770;2023-05-23T15:48:55;14.90;22.20
54178;DHT22;40085;53.004;6.770;2023-05-23T15:51:24;14.60;91.40
54178;DHT22;40085;53.004;6.770;2023-05-23T15:53:50;14.50;25.40